createdAt,value
2018-06-23T00:00:25.761Z,987.8
2018-06-23T00:01:26.884Z,987.7
2018-06-23T00:02:28.070Z,987.6
2018-06-23T00:03:29.187Z,987.6
2018-06-23T00:04:30.309Z,987.7
2018-06-23T00:05:31.442Z,987.8
2018-06-23T00:06:32.564Z,987.7
2018-06-23T00:07:33.753Z,987.7
2018-06-23T00:08:34.899Z,987.7
2018-06-23T00:09:36.034Z,987.7
2018-06-23T00:10:37.177Z,987.7
2018-06-23T00:11:39.654Z,987.7
2018-06-23T00:12:40.821Z,987.7
2018-06-23T00:13:41.950Z,987.7
2018-06-23T00:14:43.072Z,987.7
2018-06-23T00:15:44.187Z,987.7
2018-06-23T00:16:45.329Z,987.7
2018-06-23T00:17:46.485Z,987.4
2018-06-23T00:18:47.641Z,987.6
2018-06-23T00:19:48.875Z,987.7
2018-06-23T00:20:49.999Z,987.7
2018-06-23T00:21:51.139Z,987.7
2018-06-23T00:22:52.371Z,987.7
2018-06-23T00:23:53.520Z,987.7
2018-06-23T00:24:55.035Z,987.7
2018-06-23T00:25:56.168Z,987.7
2018-06-23T00:26:57.293Z,987.8
2018-06-23T00:27:58.485Z,987.7
2018-06-23T00:28:59.616Z,987.7
2018-06-23T00:30:00.749Z,987.8
2018-06-23T00:31:01.898Z,987.7
2018-06-23T00:32:03.016Z,987.7
2018-06-23T00:33:04.173Z,987.7
2018-06-23T00:34:05.332Z,987.7
2018-06-23T00:35:06.487Z,987.7
2018-06-23T00:36:07.629Z,987.7
2018-06-23T00:37:08.814Z,987.7
2018-06-23T00:38:09.984Z,987.7
2018-06-23T00:39:11.186Z,987.7
2018-06-23T00:40:12.322Z,987.7
2018-06-23T00:41:13.434Z,987.6
2018-06-23T00:42:14.580Z,987.8
2018-06-23T00:43:15.791Z,987.8
2018-06-23T00:44:16.964Z,987.7
2018-06-23T00:45:18.043Z,987.7
2018-06-23T00:46:19.274Z,987.7
2018-06-23T00:47:20.389Z,987.7
2018-06-23T00:48:21.582Z,987.8
2018-06-23T00:49:22.718Z,987.7
2018-06-23T00:50:23.854Z,987.7
2018-06-23T00:51:24.992Z,987.7
2018-06-23T00:52:26.140Z,987.7
2018-06-23T00:53:27.310Z,987.7
2018-06-23T00:54:28.475Z,987.7
2018-06-23T00:55:29.603Z,987.7
2018-06-23T00:56:30.750Z,987.7
2018-06-23T00:57:31.868Z,987.8
2018-06-23T00:58:33.037Z,987.7
2018-06-23T00:59:34.151Z,987.7
2018-06-23T01:00:35.561Z,987.7
2018-06-23T01:01:36.711Z,987.7
2018-06-23T01:02:37.856Z,987.7
2018-06-23T01:03:39.061Z,987.7
2018-06-23T01:04:40.176Z,987.7
2018-06-23T01:05:41.356Z,987.7
2018-06-23T01:06:42.499Z,987.8
2018-06-23T01:07:43.721Z,987.7
2018-06-23T01:08:44.913Z,987.7
2018-06-23T01:09:46.054Z,987.7
2018-06-23T01:10:47.216Z,987.8
2018-06-23T01:11:48.399Z,987.7
2018-06-23T01:12:49.591Z,987.7
2018-06-23T01:13:51.241Z,987.7
2018-06-23T01:14:52.367Z,987.7
2018-06-23T01:15:53.492Z,987.6
2018-06-23T01:16:54.647Z,987.6
2018-06-23T01:17:55.818Z,987.6
2018-06-23T01:18:57.064Z,987.6
2018-06-23T01:19:58.228Z,987.6
2018-06-23T01:20:59.422Z,987.6
2018-06-23T01:22:00.544Z,987.6
2018-06-23T01:23:01.710Z,987.7
2018-06-23T01:24:02.893Z,987.6
2018-06-23T01:25:04.018Z,987.6
2018-06-23T01:26:05.243Z,987.6
2018-06-23T01:27:11.731Z,987.6
2018-06-23T01:28:12.900Z,987.7
2018-06-23T01:29:14.444Z,987.6
2018-06-23T01:30:15.612Z,987.7
2018-06-23T01:31:21.317Z,987.7
2018-06-23T01:32:23.448Z,987.6
2018-06-23T01:33:24.556Z,987.6
2018-06-23T01:34:25.818Z,987.6
2018-06-23T01:35:27.067Z,987.7
2018-06-23T01:36:28.333Z,987.7
2018-06-23T01:37:29.468Z,987.6
2018-06-23T01:38:30.844Z,987.7
2018-06-23T01:39:32.031Z,987.6
2018-06-23T01:40:33.312Z,987.6
2018-06-23T01:41:34.451Z,987.6
2018-06-23T01:42:35.578Z,987.7
2018-06-23T01:43:36.697Z,987.6
2018-06-23T01:44:37.916Z,987.7
2018-06-23T01:45:39.146Z,987.7
2018-06-23T01:46:40.278Z,987.7
2018-06-23T01:47:41.427Z,987.7
2018-06-23T01:48:42.552Z,987.6
2018-06-23T01:49:43.786Z,987.6
2018-06-23T01:50:44.958Z,987.6
2018-06-23T01:51:47.378Z,987.6
2018-06-23T01:52:48.550Z,987.7
2018-06-23T01:53:49.760Z,987.7
2018-06-23T01:54:50.979Z,987.7
2018-06-23T01:55:52.132Z,987.6
2018-06-23T01:56:53.268Z,987.7
2018-06-23T01:57:54.463Z,987.6
2018-06-23T01:58:55.597Z,987.7
2018-06-23T01:59:56.828Z,987.7
2018-06-23T02:00:57.966Z,987.7
2018-06-23T02:01:59.151Z,987.7
2018-06-23T02:03:00.271Z,987.7
2018-06-23T02:04:01.419Z,987.6
2018-06-23T02:05:02.954Z,987.7
2018-06-23T02:06:04.185Z,987.7
2018-06-23T02:07:05.319Z,987.7
2018-06-23T02:08:06.437Z,987.7
2018-06-23T02:09:07.598Z,987.7
2018-06-23T02:10:08.785Z,987.7
2018-06-23T02:11:09.925Z,987.7
2018-06-23T02:12:11.068Z,987.7
2018-06-23T02:13:12.186Z,987.7
2018-06-23T02:14:13.335Z,987.6
2018-06-23T02:15:14.530Z,987.7
2018-06-23T02:16:18.630Z,987.6
2018-06-23T02:17:19.830Z,987.7
2018-06-23T02:18:20.958Z,987.6
2018-06-23T02:19:22.108Z,987.7
2018-06-23T02:20:23.296Z,987.6
2018-06-23T02:21:24.431Z,987.7
2018-06-23T02:22:25.576Z,987.7
2018-06-23T02:23:26.732Z,987.7
2018-06-23T02:24:27.894Z,987.6
2018-06-23T02:25:29.110Z,987.6
2018-06-23T02:26:30.229Z,987.7
2018-06-23T02:27:31.374Z,987.5
2018-06-23T02:28:32.508Z,987.8
2018-06-23T02:29:34.222Z,987.6
2018-06-23T02:30:35.414Z,987.6
2018-06-23T02:31:36.540Z,987.6
2018-06-23T02:32:37.669Z,987.7
2018-06-23T02:33:38.853Z,987.6
2018-06-23T02:34:40.001Z,987.7
2018-06-23T02:35:41.178Z,987.7
2018-06-23T02:36:42.329Z,987.8
2018-06-23T02:37:43.455Z,987.7
2018-06-23T02:38:44.596Z,987.7
2018-06-23T02:39:45.752Z,987.7
2018-06-23T02:40:46.905Z,987.7
2018-06-23T02:41:48.129Z,987.7
2018-06-23T02:42:49.444Z,987.5
2018-06-23T02:43:50.630Z,987.6
2018-06-23T02:44:51.752Z,987.6
2018-06-23T02:45:53.191Z,987.7
2018-06-23T02:46:54.316Z,987.7
2018-06-23T02:47:55.473Z,987.6
2018-06-23T02:48:56.630Z,987.6
2018-06-23T02:49:57.754Z,987.6
2018-06-23T02:50:58.925Z,987.6
2018-06-23T02:52:00.058Z,987.6
2018-06-23T02:53:01.228Z,987.6
2018-06-23T02:54:02.378Z,987.7
2018-06-23T02:55:03.513Z,987.7
2018-06-23T02:56:04.673Z,987.7
2018-06-23T02:57:05.841Z,987.7
2018-06-23T02:58:07.009Z,987.6
2018-06-23T02:59:08.151Z,987.6
2018-06-23T03:00:09.557Z,987.6
2018-06-23T03:01:10.839Z,987.6
2018-06-23T03:02:14.544Z,987.7
2018-06-23T03:03:15.766Z,987.6
2018-06-23T03:04:16.948Z,987.6
2018-06-23T03:05:18.112Z,987.5
2018-06-23T03:06:19.379Z,987.5
2018-06-23T03:07:20.515Z,987.6
2018-06-23T03:08:21.642Z,987.6
2018-06-23T03:09:22.798Z,987.6
2018-06-23T03:10:23.945Z,987.7
2018-06-23T03:11:25.097Z,987.7
2018-06-23T03:12:26.215Z,987.5
2018-06-23T03:13:27.353Z,987.7
2018-06-23T03:14:28.456Z,987.6
2018-06-23T03:15:29.647Z,987.5
2018-06-23T03:16:30.828Z,987.5
2018-06-23T03:17:31.945Z,987.5
2018-06-23T03:18:33.109Z,987.6
2018-06-23T03:19:34.246Z,987.6
2018-06-23T03:20:35.387Z,987.6
2018-06-23T03:21:37.500Z,987.5
2018-06-23T03:22:38.629Z,987.5
2018-06-23T03:23:39.769Z,987.6
2018-06-23T03:24:43.636Z,987.6
2018-06-23T03:25:44.767Z,987.6
2018-06-23T03:26:45.941Z,987.5
2018-06-23T03:27:47.086Z,987.7
2018-06-23T03:28:48.238Z,987.6
2018-06-23T03:29:49.411Z,987.6
2018-06-23T03:30:50.531Z,987.6
2018-06-23T03:31:51.748Z,987.6
2018-06-23T03:32:52.879Z,987.6
2018-06-23T03:33:55.733Z,987.6
2018-06-23T03:34:56.824Z,987.6
2018-06-23T03:35:57.944Z,987.5
2018-06-23T03:36:59.148Z,987.6
2018-06-23T03:38:00.282Z,987.7
2018-06-23T03:39:01.412Z,987.7
2018-06-23T03:40:02.589Z,987.7
2018-06-23T03:41:03.730Z,987.7
2018-06-23T03:42:04.907Z,987.7
2018-06-23T03:43:06.049Z,987.8
2018-06-23T03:44:07.177Z,987.8
2018-06-23T03:45:08.309Z,987.8
2018-06-23T03:46:09.538Z,987.8
2018-06-23T03:47:10.717Z,987.8
2018-06-23T03:48:11.908Z,987.8
2018-06-23T03:49:13.072Z,987.8
2018-06-23T03:50:14.224Z,987.7
2018-06-23T03:51:16.494Z,987.7
2018-06-23T03:52:17.695Z,987.8
2018-06-23T03:53:18.856Z,987.8
2018-06-23T03:54:20.026Z,987.8
2018-06-23T03:55:21.153Z,987.7
2018-06-23T03:56:22.264Z,987.7
2018-06-23T03:57:23.452Z,987.8
2018-06-23T03:58:24.602Z,987.7
2018-06-23T03:59:25.760Z,987.8
2018-06-23T04:00:26.887Z,987.7
2018-06-23T04:01:28.042Z,987.6
2018-06-23T04:02:30.802Z,987.7
2018-06-23T04:03:31.960Z,987.6
2018-06-23T04:04:33.090Z,987.8
2018-06-23T04:05:34.225Z,987.7
2018-06-23T04:06:35.413Z,987.4
2018-06-23T04:07:36.628Z,987.7
2018-06-23T04:08:37.764Z,987.8
2018-06-23T04:09:38.937Z,987.7
2018-06-23T04:10:40.099Z,987.6
2018-06-23T04:11:41.263Z,987.6
2018-06-23T04:12:42.445Z,987.6
2018-06-23T04:13:43.597Z,987.7
2018-06-23T04:14:44.730Z,987.7
2018-06-23T04:15:45.883Z,987.7
2018-06-23T04:16:47.098Z,987.6
2018-06-23T04:17:48.445Z,987.7
2018-06-23T04:18:49.619Z,987.5
2018-06-23T04:19:50.823Z,987.6
2018-06-23T04:20:52.109Z,987.5
2018-06-23T04:21:53.273Z,987.5
2018-06-23T04:22:54.556Z,987.6
2018-06-23T04:23:55.696Z,987.6
2018-06-23T04:24:56.860Z,987.6
2018-06-23T04:25:58.002Z,987.6
2018-06-23T04:26:59.138Z,987.6
2018-06-23T04:28:00.336Z,987.6
2018-06-23T04:29:01.550Z,987.7
2018-06-23T04:30:02.769Z,987.6
2018-06-23T04:31:03.903Z,987.4
2018-06-23T04:32:05.448Z,987.7
2018-06-23T04:33:09.251Z,987.8
2018-06-23T04:34:10.419Z,987.7
2018-06-23T04:35:11.551Z,987.7
2018-06-23T04:36:12.745Z,987.8
2018-06-23T04:37:13.917Z,987.7
2018-06-23T04:38:15.113Z,987.8
2018-06-23T04:39:16.279Z,987.8
2018-06-23T04:40:17.407Z,987.8
2018-06-23T04:41:18.541Z,987.7
2018-06-23T04:42:19.723Z,987.8
2018-06-23T04:43:20.938Z,987.8
2018-06-23T04:44:22.099Z,987.8
2018-06-23T04:45:23.252Z,987.7
2018-06-23T04:46:24.398Z,987.8
2018-06-23T04:47:25.520Z,987.7
2018-06-23T04:48:26.757Z,987.8
2018-06-23T04:49:27.889Z,987.8
2018-06-23T04:50:29.050Z,987.7
2018-06-23T04:51:30.204Z,987.8
2018-06-23T04:52:31.358Z,987.7
2018-06-23T04:53:32.550Z,987.6
2018-06-23T04:54:33.692Z,987.7
2018-06-23T04:55:34.859Z,987.7
2018-06-23T04:56:36.013Z,987.8
2018-06-23T04:57:39.860Z,987.7
2018-06-23T04:58:41.013Z,987.8
2018-06-23T04:59:42.159Z,987.8
2018-06-23T05:00:43.288Z,987.8
2018-06-23T05:01:44.448Z,987.7
2018-06-23T05:02:45.597Z,987.7
2018-06-23T05:03:46.819Z,987.7
2018-06-23T05:04:48.013Z,987.8
2018-06-23T05:05:49.148Z,987.8
2018-06-23T05:06:51.957Z,987.8
2018-06-23T05:07:53.136Z,987.7
2018-06-23T05:08:54.302Z,987.8
2018-06-23T05:09:55.470Z,987.8
2018-06-23T05:10:56.601Z,987.7
2018-06-23T05:11:57.721Z,987.5
2018-06-23T05:12:58.869Z,987.8
2018-06-23T05:14:00.145Z,987.9
2018-06-23T05:15:01.305Z,987.8
2018-06-23T05:16:02.424Z,987.8
2018-06-23T05:17:03.572Z,987.8
2018-06-23T05:18:05.123Z,987.8
2018-06-23T05:19:06.576Z,987.8
2018-06-23T05:20:07.748Z,987.8
2018-06-23T05:21:08.881Z,987.8
2018-06-23T05:22:10.092Z,987.8
2018-06-23T05:23:11.219Z,987.9
2018-06-23T05:24:12.385Z,987.9
2018-06-23T05:25:13.569Z,987.7
2018-06-23T05:26:14.735Z,987.8
2018-06-23T05:27:15.902Z,987.8
2018-06-23T05:28:17.056Z,987.9
2018-06-23T05:29:18.291Z,987.8
2018-06-23T05:30:19.421Z,987.8
2018-06-23T05:31:21.298Z,987.8
2018-06-23T05:32:22.463Z,987.8
2018-06-23T05:33:23.591Z,987.8
2018-06-23T05:34:24.777Z,987.7
2018-06-23T05:35:25.905Z,987.6
2018-06-23T05:36:27.031Z,987.7
2018-06-23T05:37:28.166Z,987.8
2018-06-23T05:38:29.292Z,987.7
2018-06-23T05:39:30.580Z,987.7
2018-06-23T05:40:31.688Z,987.5
2018-06-23T05:41:32.836Z,987.6
2018-06-23T05:42:33.991Z,987.7
2018-06-23T05:43:35.126Z,987.7
2018-06-23T05:44:36.304Z,987.7
2018-06-23T05:45:37.443Z,987.8
2018-06-23T05:46:38.571Z,987.7
2018-06-23T05:47:39.754Z,987.7
2018-06-23T05:48:40.892Z,987.6
2018-06-23T05:49:42.511Z,987.5
2018-06-23T05:50:43.676Z,987.7
2018-06-23T05:51:44.858Z,987.7
2018-06-23T05:52:46.054Z,987.7
2018-06-23T05:53:47.221Z,987.7
2018-06-23T05:54:48.425Z,987.7
2018-06-23T05:55:49.600Z,987.7
2018-06-23T05:56:52.028Z,987.7
2018-06-23T05:57:53.156Z,987.7
2018-06-23T05:58:54.280Z,987.7
2018-06-23T05:59:55.457Z,987.6
2018-06-23T06:00:56.620Z,987.7
2018-06-23T06:01:57.806Z,987.8
2018-06-23T06:02:58.932Z,987.7
2018-06-23T06:04:00.178Z,987.7
2018-06-23T06:05:01.406Z,987.7
2018-06-23T06:06:02.555Z,987.8
2018-06-23T06:07:03.793Z,987.8
2018-06-23T06:08:04.900Z,987.8
2018-06-23T06:09:06.048Z,987.8
2018-06-23T06:10:07.260Z,987.9
2018-06-23T06:11:08.414Z,987.9
2018-06-23T06:12:09.698Z,987.9
2018-06-23T06:13:10.863Z,987.9
2018-06-23T06:14:12.061Z,987.8
2018-06-23T06:15:14.590Z,987.8
2018-06-23T06:16:15.737Z,987.8
2018-06-23T06:17:16.901Z,987.8
2018-06-23T06:18:18.030Z,987.8
2018-06-23T06:19:19.767Z,987.8
2018-06-23T06:20:21.295Z,987.8
2018-06-23T06:21:22.455Z,987.8
2018-06-23T06:22:23.648Z,987.8
2018-06-23T06:23:25.105Z,987.8
2018-06-23T06:24:26.265Z,987.7
2018-06-23T06:25:27.457Z,987.7
2018-06-23T06:26:28.593Z,987.8
2018-06-23T06:27:29.762Z,987.8
2018-06-23T06:28:30.945Z,987.8
2018-06-23T06:29:32.137Z,987.6
2018-06-23T06:30:33.287Z,987.8
2018-06-23T06:31:34.468Z,987.8
2018-06-23T06:32:35.629Z,987.7
2018-06-23T06:33:36.803Z,987.7
2018-06-23T06:34:37.938Z,987.8
2018-06-23T06:35:39.148Z,987.8
2018-06-23T06:36:40.329Z,987.8
2018-06-23T06:37:42.661Z,987.8
2018-06-23T06:38:43.801Z,987.8
2018-06-23T06:39:44.950Z,987.7
2018-06-23T06:40:46.115Z,987.7
2018-06-23T06:41:47.285Z,987.8
2018-06-23T06:42:48.433Z,987.8
2018-06-23T06:43:49.580Z,987.8
2018-06-23T06:44:50.729Z,987.8
2018-06-23T06:45:51.968Z,987.8
2018-06-23T06:46:53.129Z,987.8
2018-06-23T06:47:54.317Z,987.6
2018-06-23T06:48:55.453Z,987.8
2018-06-23T06:49:56.598Z,987.9
2018-06-23T06:50:58.159Z,987.6
2018-06-23T06:51:59.215Z,987.8
2018-06-23T06:53:00.526Z,987.9
2018-06-23T06:54:01.732Z,987.9
2018-06-23T06:55:06.082Z,987.9
2018-06-23T06:56:07.292Z,987.9
2018-06-23T06:57:08.533Z,987.9
2018-06-23T06:58:09.680Z,987.9
2018-06-23T06:59:10.863Z,987.9
2018-06-23T07:00:11.995Z,987.9
2018-06-23T07:01:13.168Z,987.9
2018-06-23T07:02:14.812Z,987.7
2018-06-23T07:03:15.996Z,987.9
2018-06-23T07:04:17.143Z,987.9
2018-06-23T07:05:18.329Z,987.9
2018-06-23T07:06:19.722Z,987.9
2018-06-23T07:07:20.901Z,987.9
2018-06-23T07:08:22.116Z,987.7
2018-06-23T07:09:23.298Z,987.7
2018-06-23T07:10:24.447Z,987.8
2018-06-23T07:11:25.817Z,987.7
2018-06-23T07:12:26.965Z,987.8
2018-06-23T07:13:28.100Z,987.8
2018-06-23T07:14:29.292Z,987.8
2018-06-23T07:15:30.556Z,987.8
2018-06-23T07:16:31.722Z,987.9
2018-06-23T07:17:32.888Z,987.8
2018-06-23T07:18:34.004Z,987.9
2018-06-23T07:19:35.153Z,987.9
2018-06-23T07:20:36.312Z,987.9
2018-06-23T07:21:37.857Z,987.8
2018-06-23T07:22:38.984Z,987.8
2018-06-23T07:23:40.236Z,987.8
2018-06-23T07:24:41.458Z,987.8
2018-06-23T07:25:42.613Z,987.8
2018-06-23T07:26:43.816Z,987.8
2018-06-23T07:27:45.006Z,987.9
2018-06-23T07:28:46.155Z,987.8
2018-06-23T07:29:47.334Z,987.9
2018-06-23T07:30:48.541Z,987.8
2018-06-23T07:31:49.714Z,987.9
2018-06-23T07:32:50.876Z,987.8
2018-06-23T07:33:52.134Z,987.8
2018-06-23T07:34:53.392Z,987.8
2018-06-23T07:35:54.471Z,987.8
2018-06-23T07:36:55.836Z,987.8
2018-06-23T07:37:57.022Z,987.8
2018-06-23T07:38:58.250Z,987.8
2018-06-23T07:39:59.397Z,987.8
2018-06-23T07:41:00.686Z,987.7
2018-06-23T07:42:02.275Z,987.9
2018-06-23T07:43:03.497Z,987.8
2018-06-23T07:44:04.645Z,987.8
2018-06-23T07:45:05.927Z,987.9
2018-06-23T07:46:07.134Z,987.8
2018-06-23T07:47:08.689Z,987.8
2018-06-23T07:48:09.906Z,987.7
2018-06-23T07:49:11.153Z,987.8
2018-06-23T07:50:13.555Z,987.8
2018-06-23T07:51:14.819Z,987.5
2018-06-23T07:52:16.261Z,987.7
2018-06-23T07:53:17.419Z,987.6
2018-06-23T07:54:18.619Z,987.8
2018-06-23T07:55:19.858Z,987.8
2018-06-23T07:56:23.691Z,987.8
2018-06-23T07:57:24.971Z,987.8
2018-06-23T07:58:28.862Z,987.8
2018-06-23T07:59:30.340Z,987.8
2018-06-23T08:00:31.485Z,987.8
2018-06-23T08:01:32.970Z,987.8
2018-06-23T08:02:34.180Z,987.8
2018-06-23T08:03:35.321Z,987.7
2018-06-23T08:04:36.496Z,987.8
2018-06-23T08:05:39.676Z,987.7
2018-06-23T08:06:41.095Z,987.8
2018-06-23T08:07:42.411Z,987.6
2018-06-23T08:08:43.666Z,987.6
2018-06-23T08:09:44.870Z,987.7
2018-06-23T08:10:46.044Z,987.7
2018-06-23T08:11:47.284Z,987.7
2018-06-23T08:12:48.433Z,987.7
2018-06-23T08:13:49.605Z,987.7
2018-06-23T08:14:50.926Z,987.7
2018-06-23T08:15:52.177Z,987.7
2018-06-23T08:16:53.410Z,987.6
2018-06-23T08:17:54.611Z,987.8
2018-06-23T08:18:55.853Z,987.6
2018-06-23T08:19:57.091Z,987.7
2018-06-23T08:20:58.257Z,987.6
2018-06-23T08:21:59.574Z,987.7
2018-06-23T08:23:01.195Z,987.8
2018-06-23T08:24:02.513Z,987.7
2018-06-23T08:25:03.842Z,987.6
2018-06-23T08:26:05.007Z,987.7
2018-06-23T08:27:06.217Z,987.7
2018-06-23T08:28:12.007Z,987.7
2018-06-23T08:29:13.343Z,987.7
2018-06-23T08:30:16.742Z,987.7
2018-06-23T08:31:18.512Z,987.7
2018-06-23T08:32:19.915Z,987.7
2018-06-23T08:33:21.224Z,987.6
2018-06-23T08:34:22.419Z,987.7
2018-06-23T08:35:23.853Z,987.7
2018-06-23T08:36:25.025Z,987.7
2018-06-23T08:37:26.186Z,987.8
2018-06-23T08:38:27.435Z,987.7
2018-06-23T08:39:28.648Z,987.7
2018-06-23T08:40:29.800Z,987.7
2018-06-23T08:41:31.129Z,987.7
2018-06-23T08:42:32.537Z,987.7
2018-06-23T08:43:33.789Z,987.7
2018-06-23T08:44:34.957Z,987.8
2018-06-23T08:45:36.179Z,987.7
2018-06-23T08:46:37.405Z,987.7
2018-06-23T08:47:38.617Z,987.7
2018-06-23T08:48:39.840Z,987.7
2018-06-23T08:49:41.156Z,987.7
2018-06-23T08:50:42.574Z,987.7
2018-06-23T08:51:43.837Z,987.7
2018-06-23T08:52:45.074Z,987.7
2018-06-23T08:53:46.375Z,987.7
2018-06-23T08:54:47.675Z,987.7
2018-06-23T08:55:48.965Z,987.8
2018-06-23T08:56:50.339Z,987.7
2018-06-23T08:57:51.768Z,987.7
2018-06-23T08:58:53.080Z,987.7
2018-06-23T08:59:54.469Z,987.7
2018-06-23T09:00:56.070Z,987.7
2018-06-23T09:01:57.292Z,987.6
2018-06-23T09:02:58.499Z,987.5
2018-06-23T09:03:59.734Z,987.6
2018-06-23T09:05:01.045Z,987.6
2018-06-23T09:06:02.561Z,987.6
2018-06-23T09:07:03.746Z,987.6
2018-06-23T09:08:08.513Z,987.4
2018-06-23T09:09:09.954Z,987.4
2018-06-23T09:10:11.300Z,987.6
2018-06-23T09:11:12.492Z,987.6
2018-06-23T09:12:13.696Z,987.6
2018-06-23T09:13:14.905Z,987.6
2018-06-23T09:14:16.190Z,987.6
2018-06-23T09:15:19.733Z,987.5
2018-06-23T09:16:23.726Z,987.6
2018-06-23T09:17:25.011Z,987.6
2018-06-23T09:18:26.162Z,987.6
2018-06-23T09:19:27.429Z,987.6
2018-06-23T09:20:28.632Z,987.5
2018-06-23T09:21:29.805Z,987.6
2018-06-23T09:22:31.129Z,987.6
2018-06-23T09:23:32.384Z,987.6
2018-06-23T09:24:33.848Z,987.6
2018-06-23T09:25:35.101Z,987.6
2018-06-23T09:26:36.300Z,987.5
2018-06-23T09:27:37.502Z,987.6
2018-06-23T09:28:38.827Z,987.6
2018-06-23T09:29:40.084Z,987.6
2018-06-23T09:30:41.395Z,987.6
2018-06-23T09:31:42.621Z,987.6
2018-06-23T09:32:43.846Z,987.6
2018-06-23T09:33:45.050Z,987.6
2018-06-23T09:34:46.395Z,987.6
2018-06-23T09:35:47.604Z,987.5
2018-06-23T09:36:48.840Z,987.5
2018-06-23T09:37:50.039Z,987.6
2018-06-23T09:38:51.408Z,987.6
2018-06-23T09:39:53.036Z,987.6
2018-06-23T09:40:54.366Z,987.6
2018-06-23T09:41:55.661Z,987.6
2018-06-23T09:42:57.052Z,987.6
2018-06-23T09:43:58.333Z,987.7
2018-06-23T09:44:59.540Z,987.6
2018-06-23T09:46:00.867Z,987.7
2018-06-23T09:47:01.972Z,987.6
2018-06-23T09:48:03.418Z,987.7
2018-06-23T09:49:04.596Z,987.7
2018-06-23T09:50:06.022Z,987.8
2018-06-23T09:51:07.201Z,987.8
2018-06-23T09:52:08.383Z,987.8
2018-06-23T09:53:09.602Z,987.8
2018-06-23T09:54:10.859Z,987.6
2018-06-23T09:55:12.218Z,987.7
2018-06-23T09:56:13.375Z,987.9
2018-06-23T09:57:14.613Z,987.8
2018-06-23T09:58:15.760Z,987.8
2018-06-23T09:59:17.019Z,987.8
2018-06-23T10:00:18.290Z,987.7
2018-06-23T10:01:19.500Z,987.8
2018-06-23T10:02:20.675Z,987.8
2018-06-23T10:03:21.909Z,987.7
2018-06-23T10:04:23.079Z,987.6
2018-06-23T10:05:24.295Z,987.8
2018-06-23T10:06:25.789Z,987.8
2018-06-23T10:07:27.027Z,987.8
2018-06-23T10:08:28.298Z,987.7
2018-06-23T10:09:29.432Z,987.6
2018-06-23T10:10:30.723Z,987.8
2018-06-23T10:11:32.034Z,987.7
2018-06-23T10:12:33.199Z,987.8
2018-06-23T10:13:34.408Z,987.8
2018-06-23T10:14:35.842Z,987.8
2018-06-23T10:15:37.168Z,987.7
2018-06-23T10:16:38.431Z,987.8
2018-06-23T10:17:39.702Z,987.8
2018-06-23T10:18:41.029Z,987.8
2018-06-23T10:19:42.334Z,987.7
2018-06-23T10:20:43.987Z,987.8
2018-06-23T10:21:45.236Z,987.8
2018-06-23T10:22:46.483Z,987.8
2018-06-23T10:23:47.783Z,987.8
2018-06-23T10:24:49.328Z,987.8
2018-06-23T10:25:51.250Z,987.6
2018-06-23T10:26:52.666Z,987.7
2018-06-23T10:27:53.952Z,987.8
2018-06-23T10:28:55.246Z,987.7
2018-06-23T10:29:56.597Z,987.7
2018-06-23T10:30:57.962Z,987.7
2018-06-23T10:33:18.480Z,987.6
2018-06-23T10:34:19.904Z,987.8
2018-06-23T10:35:21.254Z,987.7
2018-06-23T10:36:25.356Z,987.7
2018-06-23T10:37:26.621Z,987.7
2018-06-23T10:38:27.878Z,987.7
2018-06-23T10:39:29.195Z,987.7
2018-06-23T10:40:30.443Z,987.6
2018-06-23T10:41:31.885Z,987.6
2018-06-23T10:42:34.266Z,987.6
2018-06-23T10:43:35.595Z,987.7
2018-06-23T10:44:36.899Z,987.6
2018-06-23T10:45:38.205Z,987.7
2018-06-23T10:46:39.496Z,987.7
2018-06-23T10:47:40.781Z,987.7
2018-06-23T10:48:42.091Z,987.7
2018-06-23T10:49:43.439Z,987.6
2018-06-23T10:50:44.707Z,987.7
2018-06-23T10:51:45.987Z,987.6
2018-06-23T10:52:47.218Z,987.6
2018-06-23T10:53:48.519Z,987.6
2018-06-23T10:54:49.740Z,987.5
2018-06-23T10:55:51.088Z,987.5
2018-06-23T10:56:52.419Z,987.7
2018-06-23T10:57:53.712Z,987.7
2018-06-23T10:58:54.933Z,987.7
2018-06-23T10:59:56.266Z,987.7
2018-06-23T11:00:57.647Z,987.7
2018-06-23T11:01:58.956Z,987.5
2018-06-23T11:03:00.306Z,987.7
2018-06-23T11:04:01.663Z,987.7
2018-06-23T11:05:03.021Z,987.7
2018-06-23T11:06:04.248Z,987.7
2018-06-23T11:07:05.688Z,987.8
2018-06-23T11:08:07.011Z,987.6
2018-06-23T11:09:08.334Z,987.7
2018-06-23T11:10:09.667Z,987.8
2018-06-23T11:11:10.939Z,987.8
2018-06-23T11:12:12.460Z,987.8
2018-06-23T11:13:25.437Z,987.7
2018-06-23T11:14:26.746Z,987.7
2018-06-23T11:15:28.101Z,987.6
2018-06-23T11:16:29.424Z,987.7
2018-06-23T11:17:30.751Z,987.7
2018-06-23T11:18:32.061Z,987.7
2018-06-23T11:19:33.375Z,987.7
2018-06-23T11:20:34.702Z,987.7
2018-06-23T11:21:35.973Z,987.7
2018-06-23T11:22:37.384Z,987.8
2018-06-23T11:23:38.689Z,987.7
2018-06-23T11:24:40.159Z,987.7
2018-06-23T11:25:41.514Z,987.7
2018-06-23T11:26:42.826Z,987.7
2018-06-23T22:39:37.846Z,986.3
2018-06-23T22:40:39.086Z,986.3
2018-06-23T22:41:40.305Z,986.3
2018-06-23T22:42:41.505Z,986.3
2018-06-23T22:43:42.718Z,986.4
2018-06-23T22:44:43.928Z,986.3
2018-06-23T22:45:45.176Z,986.3
2018-06-23T22:46:46.380Z,986.4
2018-06-23T22:47:47.570Z,986.3
2018-06-23T22:48:50.027Z,986.3
2018-06-23T22:49:51.270Z,986.2
2018-06-23T22:50:52.508Z,986.3
2018-06-23T22:51:53.665Z,986.3
2018-06-23T22:52:54.890Z,986.3
2018-06-23T22:53:56.087Z,986.3
2018-06-23T22:54:57.485Z,986.3
2018-06-23T22:55:58.747Z,986.3
2018-06-23T22:56:59.952Z,986.3
2018-06-23T22:58:01.230Z,986.3
2018-06-23T22:59:02.436Z,986.3
2018-06-23T23:00:03.667Z,986.3
2018-06-23T23:01:04.855Z,986.3
2018-06-23T23:02:06.157Z,986.3
2018-06-23T23:03:07.321Z,986.3
2018-06-23T23:04:08.507Z,986.3
2018-06-23T23:05:09.725Z,986.3
2018-06-23T23:06:10.918Z,986.3
2018-06-23T23:07:12.097Z,986.3
2018-06-23T23:08:15.614Z,986.3
2018-06-23T23:09:16.950Z,986.3
2018-06-23T23:10:18.169Z,986.3
2018-06-23T23:11:19.328Z,986.3
2018-06-23T23:12:20.470Z,986.3
2018-06-23T23:13:21.596Z,986.3
2018-06-23T23:14:22.746Z,986.1
2018-06-23T23:15:23.940Z,986.3
2018-06-23T23:16:25.194Z,986.3
2018-06-23T23:17:26.358Z,986.3
2018-06-23T23:18:27.497Z,986.2
2018-06-23T23:19:28.634Z,986.3
2018-06-23T23:20:29.804Z,986.2
2018-06-23T23:21:30.940Z,986.3
2018-06-23T23:22:32.064Z,986.2
2018-06-23T23:23:33.264Z,986.2
2018-06-23T23:24:34.712Z,986.2
2018-06-23T23:25:36.067Z,986.2
2018-06-23T23:26:37.261Z,986.3
2018-06-23T23:27:38.417Z,986.2
2018-06-23T23:28:39.560Z,986.2
2018-06-23T23:29:40.731Z,986.2
2018-06-23T23:30:41.913Z,986.2
2018-06-23T23:31:43.107Z,986.2
2018-06-23T23:32:44.225Z,986.1
2018-06-23T23:33:45.399Z,986.1
2018-06-23T23:34:46.541Z,986.2
2018-06-23T23:35:47.724Z,986.2
2018-06-23T23:36:48.858Z,986.2
2018-06-23T23:37:51.068Z,986.1
2018-06-23T23:38:52.219Z,986.2
2018-06-23T23:39:53.383Z,986.1
2018-06-23T23:40:54.548Z,986.1
2018-06-23T23:41:55.673Z,986.1
2018-06-23T23:42:56.821Z,986
2018-06-23T23:43:57.956Z,986.1
2018-06-23T23:44:59.113Z,986.1
2018-06-23T23:46:00.268Z,986
2018-06-23T23:47:01.385Z,986.1
2018-06-23T23:48:02.510Z,986.1
2018-06-23T23:49:03.672Z,986
2018-06-23T23:50:04.914Z,985.9
2018-06-23T23:51:06.075Z,986.1
2018-06-23T23:52:07.225Z,986.1
2018-06-23T23:53:08.369Z,986
2018-06-23T23:54:09.536Z,986
2018-06-23T23:55:10.682Z,986.1
2018-06-23T23:56:11.905Z,986
2018-06-23T23:57:13.039Z,986
2018-06-23T23:58:14.177Z,986
2018-06-23T23:59:15.390Z,985.8
